createdAt,value
2019-01-25T00:01:33.478Z,26.95
2019-01-25T00:04:02.766Z,27.20
2019-01-25T00:06:32.119Z,26.10
2019-01-25T00:09:01.334Z,27.45
2019-01-25T00:11:30.613Z,25.90
2019-01-25T00:13:59.912Z,25.33
2019-01-25T00:16:29.197Z,26.37
2019-01-25T00:18:58.493Z,29.67
2019-01-25T00:21:27.749Z,25.82
2019-01-25T00:23:57.100Z,27.15
2019-01-25T00:26:26.458Z,29.98
2019-01-25T00:28:55.735Z,28.87
2019-01-25T00:31:25.003Z,27.30
2019-01-25T00:33:54.216Z,27.05
2019-01-25T00:36:23.490Z,28.25
2019-01-25T00:38:52.822Z,28.07
2019-01-25T00:41:22.110Z,26.90
2019-01-25T00:43:51.354Z,28.42
2019-01-25T00:46:20.647Z,27.13
2019-01-25T00:48:49.923Z,27.98
2019-01-25T00:51:19.209Z,29.70
2019-01-25T00:53:48.567Z,28.12
2019-01-25T00:56:17.947Z,29.75
2019-01-25T00:58:47.191Z,28.55
2019-01-25T01:01:16.456Z,27.20
2019-01-25T01:03:45.641Z,27.95
2019-01-25T01:06:14.977Z,29.18
2019-01-25T01:08:44.287Z,28.27
2019-01-25T01:11:13.604Z,28.65
2019-01-25T01:13:42.771Z,30.05
2019-01-25T01:16:12.074Z,29.02
2019-01-25T01:18:41.319Z,29.20
2019-01-25T01:21:10.605Z,28.57
2019-01-25T01:23:39.930Z,27.55
2019-01-25T01:26:09.327Z,28.92
2019-01-25T01:28:38.531Z,30.02
2019-01-25T01:31:07.762Z,30.23
2019-01-25T01:33:37.016Z,31.52
2019-01-25T01:36:06.490Z,28.00
2019-01-25T01:38:35.990Z,28.25
2019-01-25T01:41:05.553Z,30.35
2019-01-25T01:43:34.933Z,28.87
2019-01-25T01:46:04.249Z,30.52
2019-01-25T01:48:33.633Z,29.75
2019-01-25T01:51:03.030Z,26.85
2019-01-25T01:53:32.326Z,28.40
2019-01-25T01:56:01.604Z,31.07
2019-01-25T01:58:31.002Z,28.90
2019-01-25T02:01:00.189Z,30.37
2019-01-25T02:03:29.483Z,28.92
2019-01-25T02:05:58.856Z,29.07
2019-01-25T02:08:28.274Z,29.42
2019-01-25T02:10:57.619Z,29.23
2019-01-25T02:13:27.018Z,31.65
2019-01-25T02:15:56.347Z,28.62
2019-01-25T02:18:25.798Z,30.08
2019-01-25T02:20:55.082Z,28.23
2019-01-25T02:23:24.366Z,28.23
2019-01-25T02:25:53.655Z,28.77
2019-01-25T02:28:23.030Z,29.35
2019-01-25T02:30:52.310Z,28.70
2019-01-25T02:33:21.590Z,29.40
2019-01-25T02:36:03.393Z,28.30
2019-01-25T02:38:39.062Z,29.65
2019-01-25T02:41:08.742Z,29.95
2019-01-25T02:43:43.438Z,28.77
2019-01-25T02:46:15.768Z,28.52
2019-01-25T02:48:50.582Z,30.05
2019-01-25T02:51:20.058Z,28.47
2019-01-25T02:53:49.741Z,28.90
2019-01-25T02:56:19.075Z,30.90
2019-01-25T02:58:48.449Z,28.05
2019-01-25T03:01:22.543Z,28.67
2019-01-25T03:03:51.880Z,27.98
2019-01-25T03:06:21.384Z,27.77
2019-01-25T03:08:50.701Z,28.12
2019-01-25T03:11:20.011Z,29.85
2019-01-25T03:13:49.410Z,28.02
2019-01-25T03:16:18.764Z,29.98
2019-01-25T03:18:48.072Z,27.70
2019-01-25T03:21:17.354Z,28.80
2019-01-25T03:23:46.740Z,28.47
2019-01-25T03:26:16.080Z,29.67
2019-01-25T03:28:45.518Z,28.40
2019-01-25T03:31:14.866Z,31.02
2019-01-25T03:33:44.246Z,31.68
2019-01-25T03:36:13.593Z,29.48
2019-01-25T03:38:42.995Z,29.63
2019-01-25T03:41:12.362Z,30.25
2019-01-25T03:43:41.659Z,30.20
2019-01-25T03:46:10.977Z,30.92
2019-01-25T03:48:40.444Z,31.95
2019-01-25T03:51:09.774Z,31.87
2019-01-25T03:53:39.085Z,29.80
2019-01-25T03:56:08.377Z,33.70
2019-01-25T03:58:54.335Z,32.17
2019-01-25T04:01:23.684Z,30.25
2019-01-25T04:03:53.039Z,30.03
2019-01-25T04:06:22.347Z,31.68
2019-01-25T04:08:51.709Z,31.60
2019-01-25T04:11:21.087Z,31.05
2019-01-25T04:13:50.452Z,30.57
2019-01-25T04:16:19.828Z,32.90
2019-01-25T04:18:49.171Z,30.90
2019-01-25T04:21:18.529Z,29.82
2019-01-25T04:23:47.888Z,33.40
2019-01-25T04:26:17.265Z,32.38
2019-01-25T04:28:46.597Z,29.67
2019-01-25T04:31:16.085Z,34.03
2019-01-25T04:33:45.420Z,31.70
2019-01-25T04:36:14.716Z,31.50
2019-01-25T04:38:44.005Z,32.42
2019-01-25T04:41:13.392Z,34.03
2019-01-25T04:43:42.646Z,31.33
2019-01-25T04:46:11.955Z,33.40
2019-01-25T04:48:41.294Z,30.97
2019-01-25T04:51:10.636Z,30.55
2019-01-25T04:53:40.024Z,30.50
2019-01-25T04:56:09.448Z,30.72
2019-01-25T04:58:38.749Z,30.62
2019-01-25T05:01:10.091Z,32.08
2019-01-25T05:03:39.582Z,31.48
2019-01-25T05:06:09.093Z,30.00
2019-01-25T05:08:38.400Z,31.07
2019-01-25T05:11:20.062Z,29.13
2019-01-25T05:13:47.475Z,30.33
2019-01-25T05:16:16.936Z,31.12
2019-01-25T05:18:46.373Z,32.13
2019-01-25T05:21:24.153Z,30.37
2019-01-25T05:23:53.464Z,31.60
2019-01-25T05:26:22.787Z,31.17
2019-01-25T05:28:52.132Z,31.05
2019-01-25T05:31:29.125Z,29.27
2019-01-25T05:33:59.349Z,31.23
2019-01-25T05:36:28.766Z,29.73
2019-01-25T05:38:58.154Z,31.52
2019-01-25T05:41:28.494Z,31.10
2019-01-25T05:43:58.172Z,31.13
2019-01-25T05:46:27.449Z,32.10
2019-01-25T05:48:56.846Z,29.80
2019-01-25T05:51:33.440Z,34.08
2019-01-25T05:53:57.142Z,30.32
2019-01-25T05:56:26.415Z,32.77
2019-01-25T05:58:55.745Z,30.97
2019-01-25T06:01:26.423Z,32.77
2019-01-25T06:03:55.879Z,31.80
2019-01-25T06:06:25.139Z,33.92
2019-01-25T06:08:56.544Z,28.63
2019-01-25T06:11:25.938Z,32.35
2019-01-25T06:13:55.304Z,33.40
2019-01-25T06:16:24.559Z,31.87
2019-01-25T06:18:53.881Z,30.77
2019-01-25T06:21:23.204Z,33.03
2019-01-25T06:23:55.041Z,32.80
2019-01-25T06:26:24.336Z,32.25
2019-01-25T06:28:53.578Z,31.60
2019-01-25T06:31:22.975Z,33.15
2019-01-25T06:33:52.332Z,31.77
2019-01-25T06:36:21.750Z,37.83
2019-01-25T06:38:51.055Z,33.20
2019-01-25T06:41:20.368Z,31.35
2019-01-25T06:43:49.704Z,34.48
2019-01-25T06:46:18.982Z,32.97
2019-01-25T06:48:48.235Z,33.00
2019-01-25T06:51:17.536Z,36.97
2019-01-25T06:53:46.810Z,32.03
2019-01-25T06:56:16.110Z,32.83
2019-01-25T06:59:00.928Z,31.17
2019-01-25T07:01:55.160Z,33.63
2019-01-25T07:04:24.487Z,32.98
2019-01-25T07:06:53.866Z,33.42
2019-01-25T07:09:23.290Z,31.97
2019-01-25T07:11:52.639Z,31.77
2019-01-25T07:14:21.922Z,33.37
2019-01-25T07:16:51.268Z,33.13
2019-01-25T07:19:20.597Z,34.10
2019-01-25T07:21:51.111Z,32.60
2019-01-25T07:24:20.466Z,31.73
2019-01-25T07:26:49.737Z,33.27
2019-01-25T07:29:19.082Z,33.40
2019-01-25T07:31:48.439Z,32.93
2019-01-25T07:34:17.815Z,32.67
2019-01-25T07:36:47.081Z,33.93
2019-01-25T07:39:23.623Z,33.17
2019-01-25T07:41:59.207Z,32.90
2019-01-25T07:44:23.977Z,35.47
2019-01-25T07:46:57.427Z,37.00
2019-01-25T07:49:26.469Z,33.83
2019-01-25T07:51:55.792Z,32.60
2019-01-25T07:54:25.146Z,32.80
2019-01-25T07:56:54.494Z,31.80
2019-01-25T07:59:23.838Z,33.03
2019-01-25T08:01:53.140Z,34.30
2019-01-25T08:04:22.503Z,31.60
2019-01-25T08:06:52.009Z,30.33
2019-01-25T08:09:21.356Z,31.00
2019-01-25T08:11:50.729Z,34.17
2019-01-25T08:14:20.161Z,30.70
2019-01-25T08:16:49.499Z,32.70
2019-01-25T08:19:18.800Z,34.30
2019-01-25T08:21:48.143Z,35.10
2019-01-25T08:24:17.489Z,34.23
2019-01-25T08:26:46.847Z,53.17
2019-01-25T08:29:16.153Z,34.70
2019-01-25T08:31:45.501Z,33.53
2019-01-25T08:34:14.932Z,31.03
2019-01-25T08:36:44.265Z,32.07
2019-01-25T08:39:13.648Z,33.40
2019-01-25T08:41:43.037Z,30.57
2019-01-25T08:44:12.431Z,32.83
2019-01-25T08:46:41.731Z,34.53
2019-01-25T08:49:11.101Z,33.50
2019-01-25T08:51:40.737Z,33.13
2019-01-25T08:54:10.443Z,31.33
2019-01-25T08:56:39.770Z,29.13
2019-01-25T08:59:09.222Z,30.17
2019-01-25T09:01:38.656Z,31.33
2019-01-25T09:04:07.946Z,31.83
2019-01-25T09:06:37.309Z,31.73
2019-01-25T09:09:09.984Z,31.50
2019-01-25T09:11:39.332Z,31.53
2019-01-25T09:14:08.707Z,34.30
2019-01-25T09:16:38.044Z,31.50
2019-01-25T09:19:07.342Z,31.33
2019-01-25T09:21:36.713Z,32.40
2019-01-25T09:24:06.093Z,32.60
2019-01-25T09:26:35.427Z,31.90
2019-01-25T09:29:04.785Z,33.30
2019-01-25T09:31:34.133Z,31.73
2019-01-25T09:34:03.476Z,34.00
2019-01-25T09:36:32.726Z,31.67
2019-01-25T09:39:02.072Z,34.00
2019-01-25T09:41:31.432Z,32.93
2019-01-25T09:44:00.711Z,32.27
2019-01-25T09:46:30.196Z,32.90
2019-01-25T09:48:59.661Z,34.53
2019-01-25T09:51:29.040Z,34.37
2019-01-25T09:53:58.299Z,32.57
2019-01-25T09:56:27.563Z,33.20
2019-01-25T09:58:57.808Z,32.73
2019-01-25T10:01:27.136Z,32.23
2019-01-25T10:03:56.486Z,33.87
2019-01-25T10:06:25.780Z,31.80
2019-01-25T10:08:54.962Z,34.33
2019-01-25T10:11:24.258Z,36.47
2019-01-25T10:13:53.514Z,33.87
2019-01-25T10:16:22.815Z,34.97
2019-01-25T10:18:52.081Z,34.53
2019-01-25T10:21:21.397Z,37.43
2019-01-25T10:23:50.648Z,33.57
2019-01-25T10:26:19.927Z,36.43
2019-01-25T10:28:49.224Z,34.73
2019-01-25T10:31:18.592Z,35.10
2019-01-25T10:33:47.847Z,34.07
2019-01-25T10:36:17.136Z,36.87
2019-01-25T10:38:46.471Z,35.53
2019-01-25T10:41:15.816Z,35.57
2019-01-25T10:43:45.149Z,33.53
2019-01-25T10:46:14.479Z,32.20
2019-01-25T10:48:43.736Z,33.23
2019-01-25T10:51:13.079Z,33.87
2019-01-25T10:53:42.325Z,34.00
2019-01-25T10:56:11.708Z,34.67
2019-01-25T10:58:41.056Z,36.27
2019-01-25T11:01:11.313Z,33.63
2019-01-25T11:03:40.673Z,36.97
2019-01-25T11:06:09.952Z,34.47
2019-01-25T11:08:39.201Z,34.30
2019-01-25T11:11:08.525Z,34.67
2019-01-25T11:13:37.902Z,36.30
2019-01-25T11:16:11.776Z,35.03
2019-01-25T11:18:38.931Z,36.57
2019-01-25T11:21:08.185Z,34.90
2019-01-25T11:23:37.553Z,36.43
2019-01-25T11:26:06.866Z,37.43
2019-01-25T11:28:36.136Z,36.40
2019-01-25T11:31:05.419Z,38.47
2019-01-25T11:33:34.780Z,36.10
2019-01-25T11:36:04.030Z,37.53
2019-01-25T11:38:33.287Z,35.90
2019-01-25T11:41:02.565Z,36.67
2019-01-25T11:43:31.933Z,36.03
2019-01-25T11:46:01.248Z,37.80
2019-01-25T11:48:30.622Z,38.70
2019-01-25T11:51:00.102Z,37.90
2019-01-25T11:53:29.427Z,37.77
2019-01-25T11:55:58.790Z,36.83
2019-01-25T11:58:28.121Z,37.47
2019-01-25T12:00:57.447Z,36.70
2019-01-25T12:03:26.720Z,42.47
2019-01-25T12:05:56.889Z,40.20
2019-01-25T12:08:26.241Z,37.53
2019-01-25T12:10:55.488Z,38.73
2019-01-25T12:13:24.943Z,37.07
2019-01-25T12:15:54.284Z,36.20
2019-01-25T12:18:23.740Z,37.90
2019-01-25T12:20:52.945Z,35.73
2019-01-25T12:23:22.231Z,36.07
2019-01-25T12:25:51.584Z,35.30
2019-01-25T12:28:20.869Z,35.13
2019-01-25T12:30:50.114Z,36.27
2019-01-25T12:33:20.081Z,36.47
2019-01-25T12:35:49.389Z,35.70
2019-01-25T12:38:18.908Z,37.90
2019-01-25T12:40:48.268Z,36.00
2019-01-25T12:43:23.935Z,35.50
2019-01-25T12:45:50.221Z,35.10
2019-01-25T12:48:19.500Z,36.40
2019-01-25T12:51:02.515Z,34.33
2019-01-25T12:53:32.625Z,35.03
2019-01-25T12:56:01.932Z,39.33
2019-01-25T12:58:31.243Z,35.60
2019-01-25T13:01:02.138Z,36.63
2019-01-25T13:03:31.453Z,36.47
2019-01-25T13:06:00.801Z,36.10
2019-01-25T13:08:30.157Z,37.23
2019-01-25T13:10:59.602Z,36.03
2019-01-25T13:13:31.756Z,36.57
2019-01-25T13:15:59.793Z,36.67
2019-01-25T13:18:29.187Z,36.70
2019-01-25T13:20:58.536Z,38.70
2019-01-25T13:23:27.801Z,38.27
2019-01-25T13:25:57.177Z,37.70
2019-01-25T13:28:26.459Z,37.57
2019-01-25T13:30:55.991Z,37.57
2019-01-25T13:33:25.344Z,36.47
2019-01-25T13:35:54.634Z,37.17
2019-01-25T13:38:23.896Z,36.27
2019-01-25T13:40:53.171Z,36.97
2019-01-25T13:43:22.489Z,36.00
2019-01-25T13:45:51.840Z,39.97
2019-01-25T13:48:21.172Z,37.57
2019-01-25T13:50:50.560Z,36.27
2019-01-25T13:53:19.934Z,35.57
2019-01-25T13:55:49.290Z,34.83
2019-01-25T13:58:18.636Z,38.23
2019-01-25T14:00:47.927Z,36.10
2019-01-25T14:03:17.176Z,25.70
2019-01-25T14:05:46.459Z,37.40
2019-01-25T14:08:15.812Z,34.20
2019-01-25T14:10:45.080Z,39.00
2019-01-25T14:13:14.343Z,36.47
2019-01-25T14:15:43.685Z,34.63
2019-01-25T14:18:12.953Z,34.93
2019-01-25T14:20:42.342Z,37.67
2019-01-25T14:23:11.663Z,31.37
2019-01-25T14:25:42.672Z,25.50
2019-01-25T14:28:13.596Z,24.87
2019-01-25T14:30:44.623Z,28.37
2019-01-25T14:33:13.935Z,28.27
2019-01-25T14:35:43.260Z,22.63
2019-01-25T14:38:16.367Z,22.80
2019-01-25T14:40:45.764Z,25.03
2019-01-25T14:43:18.476Z,27.47
2019-01-25T14:45:47.968Z,17.13
2019-01-25T14:48:17.243Z,16.70
2019-01-25T14:50:47.076Z,11.73
2019-01-25T14:53:16.778Z,10.03
2019-01-25T14:55:46.096Z,19.33
2019-01-25T14:58:15.419Z,11.13
2019-01-25T15:00:44.713Z,7.27
2019-01-25T15:03:14.096Z,6.90
2019-01-25T15:05:43.464Z,6.47
2019-01-25T15:08:12.803Z,6.00
2019-01-25T15:10:42.184Z,5.27
2019-01-25T15:13:11.499Z,5.93
2019-01-25T15:15:40.885Z,5.63
2019-01-25T15:18:10.172Z,5.30
2019-01-25T15:20:39.415Z,4.80
2019-01-25T15:23:08.691Z,5.63
2019-01-25T15:25:38.015Z,5.10
2019-01-25T15:28:07.314Z,4.57
2019-01-25T15:30:36.668Z,4.77
2019-01-25T15:33:06.155Z,5.00
2019-01-25T15:35:35.574Z,5.27
2019-01-25T15:38:04.937Z,5.10
2019-01-25T15:40:34.359Z,4.43
2019-01-25T15:43:03.728Z,5.47
2019-01-25T15:45:33.099Z,4.97
2019-01-25T15:48:02.512Z,5.57
2019-01-25T15:50:33.333Z,6.03
2019-01-25T15:53:02.622Z,9.57
2019-01-25T15:55:32.028Z,5.47
2019-01-25T15:58:01.399Z,5.63
2019-01-25T16:00:31.412Z,5.50
2019-01-25T16:03:00.793Z,5.83
2019-01-25T16:05:30.070Z,5.70
2019-01-25T16:07:59.384Z,5.43
2019-01-25T16:10:28.707Z,5.93
2019-01-25T16:12:58.230Z,5.30
2019-01-25T16:15:29.504Z,5.93
2019-01-25T16:17:58.912Z,5.60
2019-01-25T16:20:28.207Z,6.03
2019-01-25T16:22:58.270Z,6.70
2019-01-25T16:25:35.448Z,7.87
2019-01-25T16:28:05.749Z,47.70
2019-01-25T16:30:38.044Z,20.67
2019-01-25T16:33:07.540Z,42.10
2019-01-25T16:35:37.313Z,33.00
2019-01-25T16:38:07.111Z,12.50
2019-01-25T16:40:36.534Z,12.00
2019-01-25T16:43:08.384Z,11.77
2019-01-25T16:45:39.860Z,12.00
2019-01-25T16:48:09.503Z,12.30
2019-01-25T16:50:39.831Z,12.07
2019-01-25T16:53:11.323Z,12.73
2019-01-25T16:55:40.627Z,13.57
2019-01-25T16:58:09.896Z,15.40
2019-01-25T17:00:44.559Z,14.57
2019-01-25T17:03:13.981Z,14.63
2019-01-25T17:05:43.580Z,15.53
2019-01-25T17:08:12.988Z,14.93
2019-01-25T17:10:42.304Z,15.27
2019-01-25T17:13:11.742Z,14.87
2019-01-25T17:15:41.039Z,16.43
2019-01-25T17:18:10.657Z,18.00
2019-01-25T17:20:39.974Z,16.37
2019-01-25T17:23:09.297Z,17.90
2019-01-25T17:25:38.623Z,17.73
2019-01-25T17:28:09.601Z,17.40
2019-01-25T17:30:40.054Z,17.03
2019-01-25T17:33:09.465Z,18.00
2019-01-25T17:35:39.033Z,19.60
2019-01-25T17:38:09.357Z,21.43
2019-01-25T17:40:46.409Z,20.77
2019-01-25T17:43:12.480Z,18.90
2019-01-25T17:45:42.003Z,20.30
2019-01-25T17:48:11.600Z,20.57
2019-01-25T17:50:40.933Z,19.13
2019-01-25T17:53:10.187Z,20.07
2019-01-25T17:55:39.481Z,20.17
2019-01-25T17:58:08.861Z,20.57
2019-01-25T18:00:42.248Z,20.90
2019-01-25T18:03:11.485Z,20.57
2019-01-25T18:05:40.840Z,21.63
2019-01-25T18:08:10.161Z,21.43
2019-01-25T18:10:39.437Z,20.23
2019-01-25T18:13:08.720Z,20.93
2019-01-25T18:15:37.974Z,21.57
2019-01-25T18:18:07.238Z,22.47
2019-01-25T18:20:36.618Z,22.10
2019-01-25T18:23:05.996Z,29.97
2019-01-25T18:25:43.999Z,23.60
2019-01-25T18:28:20.059Z,24.97
2019-01-25T18:30:56.297Z,23.90
2019-01-25T18:33:25.800Z,23.83
2019-01-25T18:35:55.182Z,25.97
2019-01-25T18:38:24.548Z,23.37
2019-01-25T18:40:53.900Z,26.23
2019-01-25T18:43:23.285Z,23.50
2019-01-25T18:45:52.684Z,25.83
2019-01-25T18:48:22.188Z,24.60
2019-01-25T18:50:51.569Z,24.77
2019-01-25T18:53:21.927Z,23.17
2019-01-25T18:55:51.534Z,22.37
2019-01-25T18:58:20.828Z,23.37
2019-01-25T19:00:50.076Z,23.90
2019-01-25T19:03:19.343Z,23.67
2019-01-25T19:05:48.630Z,23.67
2019-01-25T19:08:17.839Z,25.50
2019-01-25T19:10:47.178Z,24.23
2019-01-25T19:13:16.451Z,24.93
2019-01-25T19:15:45.704Z,24.03
2019-01-25T19:18:15.071Z,23.57
2019-01-25T19:20:44.351Z,25.80
2019-01-25T19:23:13.627Z,25.60
2019-01-25T19:25:42.891Z,27.03
2019-01-25T19:28:12.180Z,25.43
2019-01-25T19:30:43.650Z,25.57
2019-01-25T19:33:12.983Z,24.20
2019-01-25T19:35:42.223Z,25.20
2019-01-25T19:38:13.289Z,127.23
2019-01-25T19:40:42.606Z,29.30
2019-01-25T19:43:11.905Z,28.83
2019-01-25T19:45:41.370Z,26.50
2019-01-25T19:48:10.636Z,26.00
2019-01-25T19:50:39.964Z,28.13
2019-01-25T19:53:09.282Z,29.70
2019-01-25T19:55:38.589Z,29.77
2019-01-25T19:58:09.908Z,28.97
2019-01-25T20:00:40.262Z,29.03
2019-01-25T20:03:09.824Z,30.03
2019-01-25T20:05:39.366Z,30.40
2019-01-25T20:08:08.614Z,29.77
2019-01-25T20:10:37.985Z,31.50
2019-01-25T20:13:08.162Z,31.17
2019-01-25T20:15:37.452Z,29.33
2019-01-25T20:18:06.809Z,27.73
2019-01-25T20:20:36.585Z,33.63
2019-01-25T20:23:06.292Z,44.60
2019-01-25T20:25:35.652Z,36.93
2019-01-25T20:28:06.148Z,36.77
2019-01-25T20:30:35.664Z,37.90
2019-01-25T20:33:05.168Z,40.20
2019-01-25T20:35:36.546Z,61.23
2019-01-25T20:38:06.051Z,61.30
2019-01-25T20:40:35.346Z,53.40
2019-01-25T20:43:05.841Z,62.63
2019-01-25T20:45:38.475Z,72.53
2019-01-25T20:48:08.331Z,66.20
2019-01-25T20:50:37.731Z,42.43
2019-01-25T20:53:08.368Z,63.93
2019-01-25T20:55:37.683Z,66.10
2019-01-25T20:58:08.096Z,52.40
2019-01-25T21:00:38.753Z,53.90
2019-01-25T21:03:11.210Z,65.23
2019-01-25T21:05:40.495Z,70.00
2019-01-25T21:08:09.877Z,50.03
2019-01-25T21:10:39.376Z,63.30
2019-01-25T21:13:08.645Z,48.03
2019-01-25T21:15:37.983Z,42.57
2019-01-25T21:18:07.381Z,56.40
2019-01-25T21:20:39.563Z,43.50
2019-01-25T21:23:08.975Z,41.07
2019-01-25T21:25:38.604Z,45.27
2019-01-25T21:28:08.035Z,47.83
2019-01-25T21:30:37.652Z,42.90
2019-01-25T21:33:07.149Z,48.93
2019-01-25T21:35:36.693Z,42.07
2019-01-25T21:38:06.735Z,41.87
2019-01-25T21:40:36.180Z,41.00
2019-01-25T21:43:06.143Z,40.67
2019-01-25T21:45:42.876Z,37.57
2019-01-25T21:48:11.203Z,37.00
2019-01-25T21:50:42.017Z,37.30
2019-01-25T21:53:11.393Z,37.63
2019-01-25T21:55:40.654Z,39.47
2019-01-25T21:58:09.953Z,42.17
2019-01-25T22:00:39.400Z,39.20
2019-01-25T22:03:08.813Z,41.90
2019-01-25T22:05:38.147Z,40.70
2019-01-25T22:08:07.674Z,37.93
2019-01-25T22:10:43.963Z,39.27
2019-01-25T22:13:13.542Z,36.47
2019-01-25T22:15:50.458Z,39.33
2019-01-25T22:18:15.291Z,39.90
2019-01-25T22:20:44.707Z,38.23
2019-01-25T22:23:14.047Z,37.73
2019-01-25T22:25:43.320Z,37.17
2019-01-25T22:28:12.601Z,39.40
2019-01-25T22:30:41.939Z,39.53
2019-01-25T22:33:11.291Z,38.67
2019-01-25T22:35:41.422Z,38.60
2019-01-25T22:38:10.809Z,36.83
2019-01-25T22:40:40.128Z,41.77
2019-01-25T22:43:09.512Z,38.73
2019-01-25T22:45:38.883Z,44.47
2019-01-25T22:48:08.150Z,41.07
2019-01-25T22:50:38.084Z,41.30
2019-01-25T22:53:07.360Z,39.97
2019-01-25T22:55:36.711Z,40.80
2019-01-25T22:58:06.273Z,44.83
2019-01-25T23:00:57.433Z,37.00
2019-01-25T23:04:19.966Z,38.63
2019-01-25T23:07:06.684Z,52.13
2019-01-25T23:09:38.776Z,47.80
2019-01-25T23:12:08.555Z,56.77
2019-01-25T23:14:38.125Z,31.57
2019-01-25T23:17:07.396Z,57.30
2019-01-25T23:19:36.758Z,75.40
2019-01-25T23:22:06.404Z,28.33
2019-01-25T23:24:35.772Z,52.20
2019-01-25T23:27:05.195Z,56.60
2019-01-25T23:29:34.593Z,42.90
2019-01-25T23:32:04.110Z,53.07
2019-01-25T23:34:33.483Z,36.70
2019-01-25T23:37:02.759Z,43.50
2019-01-25T23:39:32.187Z,58.40
2019-01-25T23:42:01.352Z,62.63
2019-01-25T23:44:30.635Z,77.83
2019-01-25T23:46:59.913Z,44.57
2019-01-25T23:49:29.165Z,32.63
2019-01-25T23:51:58.439Z,50.33
2019-01-25T23:54:27.620Z,56.40
2019-01-25T23:56:56.930Z,44.57
2019-01-25T23:59:26.160Z,74.83
